Time;durP1;ratioP1;P1;durP2;ratioP2;P2;SDS_P1;SDS_P2;PMS_P1;PMS_P2;Temp;Humidity;BMP_temperature;BMP_pressure;BME280_temperature;BME280_humidity;BME280_pressure;Samples;Min_cycle;Max_cycle;Signal;HPM_P1;HPM_P2
2022/06/24 00:01:26;;;;;;;7.47;1.70;;;15.70;99.90;;;;;;5012954;28;20843;-54
2022/06/24 00:03:53;;;;;;;4.35;1.92;;;15.80;99.90;;;;;;5013471;28;20045;-56
2022/06/24 00:06:20;;;;;;;7.43;1.70;;;15.70;99.90;;;;;;5013301;28;20547;-55
2022/06/24 00:08:49;;;;;;;4.38;2.60;;;15.80;99.90;;;;;;5001142;28;20092;-54
2022/06/24 00:11:16;;;;;;;4.13;1.25;;;15.70;99.90;;;;;;4995061;28;20127;-54
2022/06/24 00:13:43;;;;;;;;;;;15.70;99.90;;;;;;4995639;28;20093;-55
2022/06/24 00:16:10;;;;;;;3.25;1.75;;;15.70;99.90;;;;;;4995544;28;19932;-52
2022/06/24 00:18:37;;;;;;;5.05;1.65;;;15.70;99.90;;;;;;5011905;28;20794;-54
2022/06/24 00:21:10;;;;;;;;;;;15.80;99.90;;;;;;5015823;28;20602;-54
2022/06/24 00:23:40;;;;;;;5.13;2.00;;;15.80;99.90;;;;;;5014663;28;20226;-55
2022/06/24 00:26:07;;;;;;;4.63;1.90;;;15.80;99.90;;;;;;5014097;28;20049;-54
2022/06/24 00:28:34;;;;;;;7.43;1.90;;;15.80;99.90;;;;;;5013952;28;20365;-53
2022/06/24 00:31:03;;;;;;;4.30;3.05;;;15.80;99.90;;;;;;5013322;28;20045;-51
2022/06/24 00:33:35;;;;;;;3.55;2.03;;;15.80;99.90;;;;;;5013710;28;20042;-52
2022/06/24 00:36:05;;;;;;;10.85;2.53;;;15.80;99.90;;;;;;5014759;28;20119;-53
2022/06/24 00:38:38;;;;;;;4.38;2.28;;;15.80;99.90;;;;;;5014993;28;20041;-53
2022/06/24 00:41:12;;;;;;;6.43;2.55;;;15.80;99.90;;;;;;5014637;28;20096;-53
2022/06/24 00:43:45;;;;;;;5.53;2.28;;;15.80;99.90;;;;;;5018571;28;20799;-53
2022/06/24 00:46:25;;;;;;;4.00;1.83;;;15.80;99.90;;;;;;5018168;28;20084;-54
2022/06/24 00:48:57;;;;;;;4.07;1.77;;;15.80;99.90;;;;;;5000106;28;20045;-51
2022/06/24 00:51:38;;;;;;;4.20;1.77;;;15.80;99.90;;;;;;5017841;28;20045;-52
2022/06/24 00:54:13;;;;;;;3.60;2.00;;;15.80;99.90;;;;;;5018895;28;20220;-51
2022/06/24 00:56:40;;;;;;;4.80;2.10;;;15.80;99.90;;;;;;5017663;28;20474;-53
2022/06/24 00:59:12;;;;;;;3.33;1.88;;;15.80;99.90;;;;;;5017887;28;20045;-52
2022/06/24 01:01:40;;;;;;;3.97;1.38;;;15.80;99.90;;;;;;5018242;28;20123;-53
2022/06/24 01:04:10;;;;;;;6.68;2.28;;;15.80;99.90;;;;;;5018389;28;20037;-54
2022/06/24 01:06:43;;;;;;;4.40;2.05;;;15.80;99.90;;;;;;5018047;28;20327;-54
2022/06/24 01:09:11;;;;;;;12.13;2.45;;;15.80;99.90;;;;;;5015803;28;20077;-50
2022/06/24 01:11:40;;;;;;;2.25;1.83;;;15.80;99.90;;;;;;5016747;28;20455;-51
2022/06/24 01:14:07;;;;;;;5.75;2.10;;;15.80;99.90;;;;;;5017390;28;20045;-53
2022/06/24 01:16:34;;;;;;;8.60;2.15;;;15.80;99.90;;;;;;5018111;28;20499;-52
2022/06/24 01:19:06;;;;;;;5.53;2.55;;;15.80;99.90;;;;;;5017720;28;20061;-52
2022/06/24 01:21:42;;;;;;;7.85;2.90;;;15.80;99.90;;;;;;5018365;28;20041;-52
2022/06/24 01:24:17;;;;;;;6.80;2.25;;;15.80;99.90;;;;;;5017541;28;20349;-54
2022/06/24 01:26:50;;;;;;;9.45;3.28;;;15.80;99.90;;;;;;5018145;28;20426;-53
2022/06/24 01:29:19;;;;;;;8.00;2.90;;;15.90;99.90;;;;;;5016845;28;20045;-52
2022/06/24 01:31:48;;;;;;;4.43;2.58;;;15.90;99.90;;;;;;5018487;28;20475;-52
2022/06/24 01:34:17;;;;;;;2.80;1.95;;;15.90;99.90;;;;;;5016250;28;20280;-52
2022/06/24 01:36:44;;;;;;;8.57;2.72;;;15.90;99.90;;;;;;5017594;28;20475;-52
2022/06/24 01:39:11;;;;;;;5.80;2.70;;;15.90;99.90;;;;;;5017359;28;20038;-54
2022/06/24 01:41:39;;;;;;;8.88;3.13;;;15.90;99.90;;;;;;5016886;28;20045;-53
2022/06/24 01:44:06;;;;;;;11.45;4.15;;;15.90;99.90;;;;;;5017708;28;20511;-52
2022/06/24 01:46:33;;;;;;;12.65;3.13;;;15.90;99.90;;;;;;5015714;28;20146;-52
2022/06/24 01:49:00;;;;;;;10.98;2.97;;;15.90;99.90;;;;;;5015520;28;20049;-51
2022/06/24 01:51:28;;;;;;;16.27;3.67;;;15.90;99.90;;;;;;5016611;28;20041;-50
2022/06/24 01:53:55;;;;;;;5.68;2.50;;;15.90;99.90;;;;;;5016612;28;20392;-52
2022/06/24 01:56:22;;;;;;;7.97;3.22;;;16.00;99.90;;;;;;5016760;28;20045;-54
2022/06/24 01:58:49;;;;;;;9.88;3.38;;;15.90;99.90;;;;;;5016807;28;20387;-52
2022/06/24 02:01:19;;;;;;;10.55;3.63;;;15.90;99.90;;;;;;5017170;28;20069;-52
2022/06/24 02:03:46;;;;;;;19.13;4.43;;;15.90;99.90;;;;;;5016863;28;20068;-53
2022/06/24 02:06:13;;;;;;;;;;;15.90;99.90;;;;;;5017244;28;20041;-55
2022/06/24 02:08:41;;;;;;;13.60;4.07;;;15.90;99.90;;;;;;5014661;28;19963;-54
2022/06/24 02:14:04;;;;;;;16.20;3.88;;;15.80;99.90;;;;;;4997078;28;20613;-52
2022/06/24 02:16:31;;;;;;;13.70;3.60;;;15.90;99.90;;;;;;4997271;28;20042;-55
2022/06/24 02:18:59;;;;;;;12.05;3.47;;;15.90;99.90;;;;;;5014487;28;20041;-55
2022/06/24 02:21:26;;;;;;;13.57;3.42;;;15.90;99.90;;;;;;5016658;28;20554;-51
2022/06/24 02:23:53;;;;;;;11.65;3.72;;;15.90;99.90;;;;;;5016032;28;20048;-53
2022/06/24 02:26:21;;;;;;;10.75;3.60;;;15.90;99.90;;;;;;5016748;28;20527;-49
2022/06/24 02:28:48;;;;;;;9.90;4.00;;;15.90;99.90;;;;;;5015810;28;20547;-51
2022/06/24 02:31:15;;;;;;;;;;;15.90;99.90;;;;;;5016851;28;20052;-54
2022/06/24 02:33:41;;;;;;;7.82;3.50;;;16.00;99.90;;;;;;5015125;28;19921;-52
2022/06/24 02:36:08;;;;;;;;;;;16.00;99.90;;;;;;5017044;28;20045;-54
2022/06/24 02:38:36;;;;;;;7.80;3.55;;;16.00;99.90;;;;;;5017017;28;19929;-54
2022/06/24 02:41:11;;;;;;;11.43;4.05;;;16.00;99.90;;;;;;5016615;28;20042;-50
2022/06/24 02:43:41;;;;;;;10.52;3.47;;;16.00;99.90;;;;;;5018154;28;20052;-54
2022/06/24 02:46:13;;;;;;;13.18;4.70;;;16.00;99.90;;;;;;5017232;28;20045;-55
2022/06/24 02:48:42;;;;;;;16.50;4.53;;;16.10;99.90;;;;;;5017059;28;20068;-54
2022/06/24 02:51:13;;;;;;;20.75;5.47;;;16.00;99.90;;;;;;5017451;28;20073;-54
2022/06/24 02:53:42;;;;;;;20.27;6.90;;;16.10;99.90;;;;;;5018073;28;20099;-53
2022/06/24 02:56:11;;;;;;;16.52;5.57;;;16.00;99.90;;;;;;5017606;28;20126;-54
2022/06/24 02:58:39;;;;;;;25.60;6.50;;;16.00;99.90;;;;;;5016733;28;20076;-53
2022/06/24 03:01:07;;;;;;;18.60;6.30;;;16.00;99.90;;;;;;5008836;28;20096;-53
2022/06/24 03:03:34;;;;;;;15.60;5.40;;;15.90;99.90;;;;;;5010080;28;20045;-56
2022/06/24 03:06:02;;;;;;;18.23;5.35;;;15.90;99.90;;;;;;5016223;28;20038;-54
2022/06/24 03:08:29;;;;;;;14.25;5.60;;;15.90;99.90;;;;;;5016650;28;20447;-53
2022/06/24 03:10:57;;;;;;;12.68;5.00;;;15.90;99.90;;;;;;5012120;28;20155;-55
2022/06/24 03:13:24;;;;;;;16.85;4.35;;;15.90;99.90;;;;;;4995845;28;20385;-52
2022/06/24 03:15:51;;;;;;;24.73;5.53;;;15.90;99.90;;;;;;4997203;28;20045;-53
2022/06/24 03:18:18;;;;;;;18.15;4.68;;;15.90;99.90;;;;;;5009563;28;20263;-55
2022/06/24 03:20:46;;;;;;;19.33;5.20;;;15.90;99.90;;;;;;5017061;28;20045;-52
2022/06/24 03:23:16;;;;;;;11.13;5.20;;;15.90;99.90;;;;;;5017025;28;20289;-55
2022/06/24 03:25:43;;;;;;;13.43;4.53;;;15.90;99.90;;;;;;5016723;28;20041;-54
2022/06/24 03:28:10;;;;;;;17.25;5.07;;;15.80;99.90;;;;;;5017039;28;20045;-51
2022/06/24 03:30:37;;;;;;;7.35;3.72;;;15.90;99.90;;;;;;5016532;28;20064;-53
2022/06/24 03:33:05;;;;;;;20.92;5.10;;;15.90;99.90;;;;;;5015324;28;20136;-55
2022/06/24 03:35:32;;;;;;;15.40;4.55;;;15.90;99.90;;;;;;5015375;28;20057;-52
2022/06/24 03:37:58;;;;;;;11.52;4.07;;;15.90;99.90;;;;;;5016712;28;20211;-52
2022/06/24 03:40:25;;;;;;;26.70;6.07;;;15.90;99.90;;;;;;5016006;28;20046;-55
2022/06/24 03:42:52;;;;;;;14.38;4.50;;;15.90;99.90;;;;;;5016210;28;20042;-55
2022/06/24 03:45:19;;;;;;;10.45;4.10;;;15.90;99.90;;;;;;5016740;28;20065;-53
2022/06/24 03:47:46;;;;;;;17.98;4.68;;;15.80;99.90;;;;;;5015958;28;20053;-53
2022/06/24 03:50:12;;;;;;;;;;;15.80;99.90;;;;;;5017260;28;20052;-54
2022/06/24 03:52:39;;;;;;;13.50;5.43;;;15.80;99.90;;;;;;5016202;28;19944;-54
2022/06/24 03:55:06;;;;;;;;;;;15.80;99.90;;;;;;5017287;28;20459;-51
2022/06/24 03:57:33;;;;;;;9.25;4.10;;;15.80;99.90;;;;;;5016848;28;19925;-55
2022/06/24 04:00:00;;;;;;;15.48;4.72;;;15.80;99.90;;;;;;5016751;28;20131;-57
2022/06/24 04:02:37;;;;;;;16.27;5.72;;;15.80;99.90;;;;;;5015055;28;20077;-56
2022/06/24 04:05:11;;;;;;;12.68;4.47;;;15.80;99.90;;;;;;5017181;28;20044;-54
2022/06/24 04:07:39;;;;;;;17.15;4.57;;;15.80;99.90;;;;;;5015753;28;20053;-56
2022/06/24 04:10:06;;;;;;;;;;;15.70;99.90;;;;;;5016441;28;20428;-56
2022/06/24 04:12:32;;;;;;;16.13;4.60;;;15.70;99.90;;;;;;5005549;28;19932;-54
2022/06/24 04:15:17;;;;;;;16.05;4.88;;;15.70;99.90;;;;;;4994684;28;20050;-52
2022/06/24 04:17:46;;;;;;;11.35;4.45;;;15.70;99.90;;;;;;5005907;28;20605;-56
2022/06/24 04:20:15;;;;;;;9.68;4.20;;;15.70;99.90;;;;;;5016178;28;20038;-52
2022/06/24 04:22:42;;;;;;;14.52;5.03;;;15.70;99.90;;;;;;4999392;28;20034;-54
2022/06/24 04:25:10;;;;;;;7.38;3.67;;;15.70;99.90;;;;;;5016524;28;20117;-54
2022/06/24 04:27:38;;;;;;;10.73;4.65;;;15.70;99.90;;;;;;5016954;28;20034;-55
2022/06/24 04:30:07;;;;;;;16.52;4.93;;;15.70;99.90;;;;;;5015930;28;20041;-56
2022/06/24 04:32:34;;;;;;;17.83;4.80;;;15.70;99.90;;;;;;5016894;28;20050;-54
2022/06/24 04:35:03;;;;;;;15.75;4.88;;;15.70;99.90;;;;;;5015849;28;20579;-55
2022/06/24 04:37:30;;;;;;;22.05;5.40;;;15.60;99.90;;;;;;5016099;28;20049;-51
2022/06/24 04:39:58;;;;;;;;;;;15.60;99.90;;;;;;5015229;28;20045;-55
2022/06/24 04:42:24;;;;;;;10.13;4.82;;;15.60;99.90;;;;;;5015695;28;19925;-47
2022/06/24 04:44:51;;;;;;;19.20;5.47;;;15.60;99.90;;;;;;5014667;28;20880;-46
2022/06/24 04:47:19;;;;;;;18.52;5.90;;;15.60;99.90;;;;;;5015801;28;20033;-49
2022/06/24 04:49:46;;;;;;;26.33;5.88;;;15.70;99.90;;;;;;5015495;28;20045;-47
2022/06/24 04:52:12;;;;;;;18.80;5.32;;;15.70;99.90;;;;;;5016637;28;20046;-47
2022/06/24 04:54:39;;;;;;;12.50;5.40;;;15.70;99.90;;;;;;5016421;28;20047;-46
2022/06/24 04:57:06;;;;;;;12.57;6.35;;;15.80;99.90;;;;;;5016911;28;20056;-48
2022/06/24 04:59:34;;;;;;;19.98;6.30;;;15.90;99.90;;;;;;5015928;28;20748;-47
2022/06/24 05:02:00;;;;;;;16.80;5.78;;;15.90;99.90;;;;;;5016364;28;20053;-49
2022/06/24 05:04:37;;;;;;;18.40;5.72;;;16.00;99.90;;;;;;5015810;28;20045;-46
2022/06/24 05:07:05;;;;;;;18.30;4.70;;;16.00;99.90;;;;;;5016701;28;20196;-47
2022/06/24 05:09:32;;;;;;;12.15;5.18;;;16.10;99.90;;;;;;5016292;28;20049;-46
2022/06/24 05:11:59;;;;;;;15.40;5.13;;;16.10;99.90;;;;;;5016299;28;20060;-47
2022/06/24 05:14:27;;;;;;;14.88;5.22;;;16.20;99.90;;;;;;5012863;28;20485;-46
2022/06/24 05:16:54;;;;;;;11.90;5.70;;;16.20;99.90;;;;;;5016614;28;20052;-47
2022/06/24 05:19:21;;;;;;;11.00;4.90;;;16.30;99.90;;;;;;5015696;28;20041;-47
2022/06/24 05:21:48;;;;;;;10.02;5.22;;;16.40;99.90;;;;;;5015056;28;20048;-49
2022/06/24 05:24:15;;;;;;;12.90;4.40;;;16.50;99.90;;;;;;5016034;28;20569;-46
2022/06/24 05:26:42;;;;;;;11.82;5.03;;;16.60;99.90;;;;;;5016514;28;20053;-47
2022/06/24 05:29:10;;;;;;;11.57;5.13;;;16.70;99.90;;;;;;5018857;28;20048;-47
2022/06/24 05:31:37;;;;;;;9.48;4.82;;;16.80;99.90;;;;;;5019464;28;20045;-50
2022/06/24 05:34:06;;;;;;;10.75;4.22;;;16.90;99.90;;;;;;5020270;28;20056;-48
2022/06/24 05:36:34;;;;;;;11.73;4.60;;;17.00;99.90;;;;;;5018656;28;20049;-51
2022/06/24 05:39:02;;;;;;;12.88;4.28;;;17.10;99.90;;;;;;5001769;28;20038;-47
2022/06/24 05:41:29;;;;;;;10.25;4.80;;;17.20;99.90;;;;;;5018714;28;20046;-50
2022/06/24 05:43:56;;;;;;;12.70;4.65;;;17.30;99.90;;;;;;5019489;28;20045;-48
2022/06/24 05:46:27;;;;;;;10.88;4.20;;;17.50;99.90;;;;;;5019174;28;20119;-47
2022/06/24 05:48:55;;;;;;;19.23;5.35;;;17.60;99.90;;;;;;5018205;28;20053;-49
2022/06/24 05:51:22;;;;;;;11.65;4.50;;;17.70;99.90;;;;;;5018039;28;20072;-48
2022/06/24 05:56:35;;;;;;;13.05;4.35;;;18.10;99.90;;;;;;5019802;28;20060;-47
2022/06/24 05:59:02;;;;;;;17.63;4.45;;;18.20;99.90;;;;;;5018358;28;20074;-48
2022/06/24 06:01:29;;;;;;;10.48;3.50;;;18.40;99.90;;;;;;5019538;28;20053;-47
2022/06/24 06:03:56;;;;;;;15.18;3.47;;;18.50;99.90;;;;;;5018294;28;20606;-47
2022/06/24 06:06:24;;;;;;;10.48;3.72;;;18.60;99.90;;;;;;5019249;28;20111;-47
2022/06/24 06:08:50;;;;;;;14.30;3.50;;;18.60;99.90;;;;;;5018591;28;20053;-47
2022/06/24 06:11:22;;;;;;;17.27;3.50;;;18.70;99.90;;;;;;5018900;28;20045;-47
2022/06/24 06:13:51;;;;;;;17.52;3.83;;;18.70;99.90;;;;;;5013787;28;20038;-47
2022/06/24 06:16:18;;;;;;;14.23;4.90;;;18.80;99.90;;;;;;4997330;28;20538;-48
2022/06/24 06:18:45;;;;;;;9.77;2.70;;;18.80;99.90;;;;;;5016749;28;20045;-47
2022/06/24 06:21:12;;;;;;;15.80;3.97;;;18.80;99.90;;;;;;5018933;28;20049;-48
2022/06/24 06:23:40;;;;;;;9.02;3.10;;;18.90;99.90;;;;;;5018787;28;20655;-47
2022/06/24 06:26:09;;;;;;;10.80;4.00;;;18.90;99.90;;;;;;5018857;28;20053;-49
2022/06/24 06:28:37;;;;;;;9.98;3.10;;;18.90;99.90;;;;;;5017228;28;20057;-45
2022/06/24 06:31:04;;;;;;;7.55;2.75;;;18.90;99.90;;;;;;5016781;28;20057;-47
2022/06/24 06:33:31;;;;;;;10.40;2.42;;;18.90;99.90;;;;;;5018988;28;20045;-48
2022/06/24 06:36:10;;;;;;;9.25;2.53;;;19.00;99.90;;;;;;5017754;28;20049;-50
2022/06/24 06:38:39;;;;;;;13.98;3.70;;;19.00;99.90;;;;;;5018110;28;20087;-49
2022/06/24 06:41:13;;;;;;;9.38;3.03;;;19.00;99.90;;;;;;5017968;28;20038;-47
2022/06/24 06:43:40;;;;;;;11.68;3.67;;;19.00;99.90;;;;;;5017971;28;20041;-47
2022/06/24 06:46:11;;;;;;;11.48;4.00;;;19.10;99.90;;;;;;5018612;28;20042;-65
2022/06/24 06:48:41;;;;;;;8.32;2.70;;;19.10;99.90;;;;;;5016462;28;20049;-57
2022/06/24 06:51:08;;;;;;;12.18;3.42;;;19.10;99.90;;;;;;5018370;28;20037;-54
2022/06/24 06:53:35;;;;;;;7.38;3.22;;;19.10;99.90;;;;;;5016680;28;20041;-54
2022/06/24 06:56:03;;;;;;;10.65;3.33;;;19.10;99.90;;;;;;5017042;28;20766;-54
2022/06/24 06:58:30;;;;;;;13.50;3.65;;;19.20;99.90;;;;;;5017581;28;20072;-54
2022/06/24 07:00:57;;;;;;;10.20;2.90;;;19.20;99.90;;;;;;5017712;28;20038;-52
2022/06/24 07:03:24;;;;;;;11.25;3.45;;;19.20;99.90;;;;;;5016382;28;20543;-53
2022/06/24 07:05:51;;;;;;;13.32;3.92;;;19.20;99.90;;;;;;5017853;28;20454;-54
2022/06/24 07:08:17;;;;;;;8.10;3.13;;;19.30;99.90;;;;;;5016371;28;20045;-55
2022/06/24 07:10:44;;;;;;;16.42;3.85;;;19.30;99.90;;;;;;5017819;28;20057;-53
2022/06/24 07:13:12;;;;;;;7.10;3.05;;;19.40;99.90;;;;;;5017850;28;20045;-52
2022/06/24 07:15:39;;;;;;;14.23;3.20;;;19.40;99.90;;;;;;5005110;28;20030;-55
2022/06/24 07:18:06;;;;;;;6.65;3.28;;;19.50;99.90;;;;;;5009108;28;20060;-55
2022/06/24 07:20:33;;;;;;;13.60;3.92;;;19.60;99.90;;;;;;5017498;28;20033;-53
2022/06/24 07:23:01;;;;;;;10.88;2.83;;;19.60;99.90;;;;;;5016060;28;20112;-49
2022/06/24 07:25:29;;;;;;;15.52;3.53;;;19.70;99.90;;;;;;5017360;28;20487;-49
2022/06/24 07:27:56;;;;;;;12.52;4.07;;;19.80;99.90;;;;;;5017136;28;20436;-48
2022/06/24 07:30:23;;;;;;;7.97;3.30;;;19.90;99.90;;;;;;5017028;28;20054;-50
2022/06/24 07:32:50;;;;;;;14.13;3.67;;;19.90;99.90;;;;;;5016889;28;20045;-49
2022/06/24 07:35:16;;;;;;;9.18;3.55;;;20.00;99.90;;;;;;5017536;28;20042;-50
2022/06/24 07:38:03;;;;;;;10.73;3.30;;;20.10;99.90;;;;;;5015662;28;20612;-50
2022/06/24 07:40:30;;;;;;;9.00;4.07;;;20.20;99.90;;;;;;5017139;28;20111;-50
2022/06/24 07:42:57;;;;;;;10.35;2.97;;;20.30;99.90;;;;;;5016225;28;20045;-51
2022/06/24 07:45:24;;;;;;;9.60;3.60;;;20.40;99.90;;;;;;5017623;28;20555;-50
2022/06/24 07:47:51;;;;;;;14.20;3.55;;;20.50;99.90;;;;;;5016571;28;20053;-48
2022/06/24 07:50:17;;;;;;;18.05;4.25;;;20.70;99.90;;;;;;5016785;28;20127;-48
2022/06/24 07:52:45;;;;;;;9.20;3.50;;;20.90;99.90;;;;;;5013161;28;20045;-51
2022/06/24 07:57:56;;;;;;;13.73;3.50;;;21.20;99.90;;;;;;5016138;28;20053;-50
2022/06/24 08:00:23;;;;;;;28.58;4.68;;;21.40;99.90;;;;;;5015547;28;20698;-51
2022/06/24 08:02:50;;;;;;;10.23;3.33;;;21.50;99.90;;;;;;5015999;28;20046;-50
2022/06/24 08:05:17;;;;;;;13.27;3.67;;;21.60;99.90;;;;;;5016207;28;20542;-49
2022/06/24 08:07:44;;;;;;;14.95;3.33;;;21.70;99.90;;;;;;5017181;28;20045;-48
2022/06/24 08:10:11;;;;;;;10.48;2.92;;;21.70;99.90;;;;;;5016660;28;20076;-50
2022/06/24 08:12:39;;;;;;;9.75;2.85;;;21.70;99.90;;;;;;5016904;28;20188;-48
2022/06/24 08:15:06;;;;;;;21.45;3.92;;;21.60;99.90;;;;;;5016772;28;20045;-56
2022/06/24 08:17:33;;;;;;;13.50;3.75;;;21.50;99.90;;;;;;4997136;28;20050;-53
2022/06/24 08:19:59;;;;;;;12.57;2.88;;;21.40;99.90;;;;;;4996857;28;20731;-51
2022/06/24 08:22:26;;;;;;;9.82;3.00;;;21.30;99.90;;;;;;4996651;28;20049;-52
2022/06/24 08:24:53;;;;;;;19.52;3.63;;;21.20;99.90;;;;;;4996885;28;20100;-53
2022/06/24 08:27:39;;;;;;;7.03;1.98;;;21.10;99.90;;;;;;5008044;28;20072;-53
2022/06/24 08:30:07;;;;;;;10.80;3.10;;;21.10;99.90;;;;;;5016166;28;20045;-54
2022/06/24 08:32:34;;;;;;;7.68;2.65;;;21.10;99.90;;;;;;5016201;28;20144;-56
2022/06/24 08:35:01;;;;;;;15.18;3.35;;;21.30;99.90;;;;;;5016870;28;20651;-56
2022/06/24 08:37:48;;;;;;;7.00;2.73;;;21.30;99.90;;;;;;5015579;28;20038;-59
2022/06/24 08:40:16;;;;;;;10.73;3.75;;;21.40;99.90;;;;;;5016577;28;20049;-54
2022/06/24 08:42:44;;;;;;;9.48;2.88;;;21.50;99.90;;;;;;5016100;28;20120;-53
2022/06/24 08:45:12;;;;;;;14.98;3.40;;;21.50;99.90;;;;;;5015839;28;20068;-54
2022/06/24 08:47:42;;;;;;;19.67;3.50;;;21.60;99.90;;;;;;5016807;28;20077;-54
2022/06/24 08:50:09;;;;;;;10.50;3.55;;;21.60;99.90;;;;;;5016249;28;20045;-52
2022/06/24 08:52:36;;;;;;;12.80;3.85;;;21.60;99.90;;;;;;5016812;28;20052;-53
2022/06/24 08:55:07;;;;;;;11.35;4.30;;;21.50;99.90;;;;;;5016346;28;20681;-53
2022/06/24 08:57:34;;;;;;;11.25;4.70;;;21.50;99.90;;;;;;5016787;28;20057;-56
2022/06/24 09:00:01;;;;;;;17.83;4.30;;;21.50;99.90;;;;;;5014438;28;20054;-61
2022/06/24 09:02:28;;;;;;;17.92;5.15;;;21.40;99.90;;;;;;5016832;28;20041;-53
2022/06/24 09:04:59;;;;;;;13.73;5.13;;;21.30;99.90;;;;;;5019598;28;20043;-51
2022/06/24 09:07:29;;;;;;;18.58;5.78;;;21.20;99.90;;;;;;5020241;28;20083;-50
2022/06/24 09:09:58;;;;;;;9.43;4.80;;;21.10;99.90;;;;;;5018380;28;20064;-52
2022/06/24 09:12:28;;;;;;;17.17;5.25;;;21.10;99.90;;;;;;5019499;28;20103;-52
2022/06/24 09:15:02;;;;;;;9.90;3.88;;;20.90;99.90;;;;;;5020243;28;20116;-52
2022/06/24 09:17:30;;;;;;;11.27;4.05;;;20.80;99.90;;;;;;5008426;28;20084;-51
2022/06/24 09:20:07;;;;;;;12.13;5.15;;;20.70;99.90;;;;;;4999379;28;20727;-48
2022/06/24 09:23:05;;;;;;;8.68;3.95;;;20.60;99.90;;;;;;4999818;28;20112;-48
2022/06/24 09:25:41;;;;;;;21.17;5.32;;;20.50;99.90;;;;;;5000543;28;20077;-48
2022/06/24 09:28:08;;;;;;;10.15;3.67;;;20.30;99.90;;;;;;5014375;28;20626;-48
2022/06/24 09:30:37;;;;;;;7.15;3.28;;;20.20;99.90;;;;;;5018162;28;20037;-47
2022/06/24 09:33:04;;;;;;;17.52;4.82;;;20.10;99.90;;;;;;5018846;28;20045;-48
2022/06/24 09:36:02;;;;;;;16.25;5.43;;;20.00;99.90;;;;;;5018185;28;20057;-52
2022/06/24 09:38:30;;;;;;;17.48;6.10;;;19.90;99.90;;;;;;5018389;28;20810;-51
2022/06/24 09:41:01;;;;;;;16.15;6.18;;;19.70;99.90;;;;;;5018081;28;20103;-54
2022/06/24 09:43:31;;;;;;;13.20;4.90;;;19.50;99.90;;;;;;5018885;28;20038;-57
2022/06/24 09:45:58;;;;;;;18.92;6.65;;;19.30;99.90;;;;;;5018261;28;20052;-54
2022/06/24 09:48:32;;;;;;;16.55;4.72;;;19.20;99.90;;;;;;5019084;28;20128;-50
2022/06/24 09:51:04;;;;;;;13.20;4.30;;;19.10;99.90;;;;;;5019415;28;20132;-51
2022/06/24 09:53:37;;;;;;;9.75;4.18;;;18.90;99.90;;;;;;5019173;28;21097;-52
2022/06/24 09:56:08;;;;;;;9.40;3.50;;;18.70;99.90;;;;;;5019028;28;20413;-55
2022/06/24 09:58:40;;;;;;;17.60;4.72;;;18.60;99.90;;;;;;5019476;28;20727;-54
2022/06/24 10:01:06;;;;;;;11.25;3.70;;;18.50;99.90;;;;;;5019047;28;20123;-55
2022/06/24 10:03:35;;;;;;;12.82;4.10;;;18.40;99.90;;;;;;5018565;28;20049;-55
2022/06/24 10:06:05;;;;;;;12.85;3.80;;;18.30;99.90;;;;;;5018734;28;20143;-56
2022/06/24 10:08:35;;;;;;;12.48;3.70;;;18.20;99.90;;;;;;5017328;28;20077;-55
2022/06/24 10:11:23;;;;;;;19.95;4.50;;;18.10;99.90;;;;;;5018914;28;20514;-54
2022/06/24 10:13:51;;;;;;;10.80;3.55;;;18.00;99.90;;;;;;5017996;28;20095;-55
2022/06/24 10:16:18;;;;;;;11.43;4.13;;;17.90;99.90;;;;;;5017692;28;20516;-58
2022/06/24 10:18:48;;;;;;;10.52;3.58;;;17.80;99.90;;;;;;5004796;28;20103;-55
2022/06/24 10:21:19;;;;;;;14.77;4.00;;;17.80;99.90;;;;;;5018325;28;20049;-53
2022/06/24 10:23:51;;;;;;;9.48;4.00;;;17.80;99.90;;;;;;5017966;28;20565;-54
2022/06/24 10:26:24;;;;;;;16.90;3.80;;;17.70;99.90;;;;;;5019045;28;20046;-56
2022/06/24 10:29:00;;;;;;;12.65;4.30;;;17.60;99.90;;;;;;5005379;28;20542;-55
2022/06/24 10:31:42;;;;;;;8.98;3.33;;;17.60;99.90;;;;;;5018755;28;20045;-55
2022/06/24 10:34:28;;;;;;;9.57;3.58;;;17.60;99.90;;;;;;5018378;28;20041;-55
2022/06/24 10:37:09;;;;;;;17.45;3.95;;;17.50;99.90;;;;;;5018636;28;20442;-54
2022/06/24 10:39:47;;;;;;;16.17;3.83;;;17.40;99.90;;;;;;5017174;28;20633;-52
2022/06/24 10:42:15;;;;;;;5.88;3.28;;;17.50;99.90;;;;;;5017203;28;20042;-55
2022/06/24 10:44:53;;;;;;;13.23;2.92;;;17.40;99.90;;;;;;5016595;28;20041;-53
2022/06/24 10:47:27;;;;;;;7.93;3.05;;;17.40;99.90;;;;;;5018145;28;20048;-56
2022/06/24 10:49:54;;;;;;;8.23;2.35;;;17.40;99.90;;;;;;5017556;28;20129;-55
2022/06/24 10:52:45;;;;;;;5.05;2.83;;;17.50;99.90;;;;;;5018581;28;20073;-57
2022/06/24 10:55:18;;;;;;;10.13;2.67;;;17.50;99.90;;;;;;5017840;28;20046;-54
2022/06/24 10:57:48;;;;;;;6.85;2.70;;;17.60;99.90;;;;;;5018299;28;20511;-56
2022/06/24 11:00:18;;;;;;;6.10;2.53;;;17.70;99.90;;;;;;5017138;28;20038;-57
2022/06/24 11:02:49;;;;;;;5.25;1.88;;;17.80;99.90;;;;;;5018028;28;20071;-54
2022/06/24 11:05:21;;;;;;;10.38;2.88;;;17.90;99.90;;;;;;5016026;28;20045;-56
2022/06/24 11:07:49;;;;;;;10.13;2.33;;;18.10;99.90;;;;;;5016388;28;20052;-54
2022/06/24 11:10:19;;;;;;;8.02;1.75;;;18.20;99.90;;;;;;5017918;28;20060;-56
2022/06/24 11:12:54;;;;;;;5.32;2.20;;;18.40;99.90;;;;;;5017332;28;20041;-54
2022/06/24 11:15:40;;;;;;;9.77;1.83;;;18.50;99.90;;;;;;5017829;28;20073;-55
2022/06/24 11:18:09;;;;;;;4.07;1.95;;;18.60;99.90;;;;;;5015826;28;20052;-52
2022/06/24 11:20:42;;;;;;;6.10;1.75;;;18.70;99.90;;;;;;4996739;28;20132;-56
2022/06/24 11:23:14;;;;;;;5.72;2.55;;;18.70;99.90;;;;;;4996146;28;20046;-53
2022/06/24 11:25:52;;;;;;;6.18;1.52;;;18.80;99.90;;;;;;4996700;28;20056;-54
2022/06/24 11:28:22;;;;;;;5.72;1.35;;;18.80;99.90;;;;;;5013545;28;20033;-55
2022/06/24 11:30:50;;;;;;;7.35;2.00;;;18.90;99.90;;;;;;5017181;28;20123;-56
2022/06/24 11:33:19;;;;;;;3.78;1.67;;;18.90;99.90;;;;;;5016876;28;20041;-55
2022/06/24 11:35:47;;;;;;;5.82;1.58;;;18.80;99.90;;;;;;5017617;28;20053;-54
2022/06/24 11:38:22;;;;;;;11.07;3.22;;;18.80;99.90;;;;;;5017133;28;20045;-56
2022/06/24 11:40:49;;;;;;;7.05;2.10;;;18.80;99.90;;;;;;5016672;28;20049;-56
2022/06/24 11:43:17;;;;;;;2.97;1.50;;;18.60;99.90;;;;;;5016695;28;20523;-54
2022/06/24 11:45:46;;;;;;;3.03;1.42;;;18.60;99.90;;;;;;5017003;28;20095;-55
2022/06/24 11:48:24;;;;;;;6.43;1.48;;;18.60;99.90;;;;;;5017082;28;20052;-53
2022/06/24 11:50:52;;;;;;;3.05;1.50;;;18.50;99.90;;;;;;5016530;28;20053;-54
2022/06/24 11:53:25;;;;;;;5.28;2.08;;;18.50;99.90;;;;;;5017205;28;20045;-54
2022/06/24 11:55:54;;;;;;;6.20;2.33;;;18.50;99.90;;;;;;5016317;28;21042;-54
2022/06/24 11:58:22;;;;;;;7.10;2.10;;;18.40;99.90;;;;;;5017061;28;20049;-53
2022/06/24 12:00:52;;;;;;;3.17;2.00;;;18.40;99.90;;;;;;5015371;28;20057;-53
2022/06/24 12:03:21;;;;;;;8.60;2.00;;;18.40;99.90;;;;;;5016826;28;20042;-50
2022/06/24 12:05:49;;;;;;;2.35;1.73;;;18.40;99.90;;;;;;5016877;28;20052;-51
2022/06/24 12:08:17;;;;;;;6.60;2.10;;;18.40;99.90;;;;;;5016937;28;20052;-50
2022/06/24 12:10:52;;;;;;;7.40;2.33;;;18.50;99.90;;;;;;5015146;28;20757;-53
2022/06/24 12:13:32;;;;;;;4.25;1.80;;;18.50;99.90;;;;;;5016402;28;20045;-52
2022/06/24 12:15:59;;;;;;;8.07;2.13;;;18.40;99.90;;;;;;5016685;28;20049;-53
2022/06/24 12:18:27;;;;;;;6.57;2.42;;;18.30;99.90;;;;;;5016083;28;20073;-52
2022/06/24 12:21:03;;;;;;;7.60;2.35;;;18.30;99.90;;;;;;5002152;28;20107;-54
2022/06/24 12:23:35;;;;;;;10.82;2.60;;;18.30;99.90;;;;;;4996209;28;20038;-52
2022/06/24 12:26:22;;;;;;;6.85;2.55;;;18.30;99.90;;;;;;4995507;28;20145;-52
2022/06/24 12:29:03;;;;;;;8.15;2.33;;;18.20;99.90;;;;;;5003440;28;20043;-51
2022/06/24 12:31:31;;;;;;;12.52;2.70;;;18.20;99.90;;;;;;5016882;28;20048;-50
2022/06/24 12:33:59;;;;;;;4.88;2.58;;;18.10;99.90;;;;;;5014433;28;20111;-53
2022/06/24 12:36:41;;;;;;;5.68;2.88;;;18.00;99.90;;;;;;5016865;28;20041;-53
2022/06/24 12:39:10;;;;;;;8.25;2.75;;;17.90;99.90;;;;;;5018629;28;20049;-55
2022/06/24 12:41:45;;;;;;;6.80;2.20;;;17.80;99.90;;;;;;5020373;28;20056;-54
2022/06/24 12:44:12;;;;;;;16.60;2.97;;;17.70;99.90;;;;;;5020439;28;20435;-54
2022/06/24 12:52:41;;;;;;;9.57;3.13;;;17.20;99.90;;;;;;5020234;28;20084;-52
2022/06/24 12:55:11;;;;;;;10.63;2.63;;;17.00;99.90;;;;;;5019981;28;20581;-59
2022/06/24 12:57:38;;;;;;;8.68;2.95;;;16.90;99.90;;;;;;5001150;28;20459;-59
2022/06/24 13:00:08;;;;;;;6.13;2.63;;;16.80;99.90;;;;;;5006969;28;20050;-52
2022/06/24 13:02:40;;;;;;;9.10;3.10;;;16.70;99.90;;;;;;5015999;28;20046;-58
2022/06/24 13:05:09;;;;;;;12.20;2.83;;;16.70;99.90;;;;;;5010899;28;20041;-53
2022/06/24 13:07:37;;;;;;;9.73;2.65;;;16.70;99.90;;;;;;5019801;28;20050;-54
2022/06/24 13:10:07;;;;;;;8.90;3.58;;;16.80;99.90;;;;;;5020711;28;20128;-58